Time;durP1;ratioP1;P1;durP2;ratioP2;P2;SDS_P1;SDS_P2;PMS_P1;PMS_P2;Temp;Humidity;BMP_temperature;BMP_pressure;BME280_temperature;BME280_humidity;BME280_pressure;Samples;Min_cycle;Max_cycle;Signal;HPM_P1;HPM_P2
2023/09/21 00:01:06;;;;;;;4.57;2.10;;;;;;;17.16;86.06;99913.94;5049674;28;20104;-48
2023/09/21 00:03:34;;;;;;;3.90;2.40;;;;;;;17.17;85.64;99902.22;5046419;28;20017;-48
2023/09/21 00:06:00;;;;;;;5.88;2.53;;;;;;;17.18;85.67;99896.63;5044619;28;20103;-49
2023/09/21 00:08:26;;;;;;;4.70;2.20;;;;;;;17.15;86.20;99899.69;5044374;28;20570;-48
2023/09/21 00:10:52;;;;;;;5.07;2.13;;;;;;;17.17;86.01;99907.56;5047680;28;20033;-49
2023/09/21 00:13:18;;;;;;;4.18;2.22;;;;;;;17.15;86.15;99901.53;5045334;28;20071;-50
2023/09/21 00:15:44;;;;;;;5.05;2.20;;;;;;;17.16;86.27;99897.84;5048501;28;20029;-49
2023/09/21 00:18:10;;;;;;;4.15;2.15;;;;;;;17.13;86.56;99890.97;5045250;28;20075;-50
2023/09/21 00:23:07;;;;;;;5.90;2.00;;;;;;;17.11;85.92;99878.78;5043047;28;20116;-50
2023/09/21 00:25:34;;;;;;;4.45;2.30;;;;;;;17.11;86.15;99873.41;5050576;28;20112;-48
2023/09/21 00:27:59;;;;;;;3.78;2.17;;;;;;;17.11;85.92;99876.09;5046247;28;20030;-48
2023/09/21 00:30:24;;;;;;;4.20;2.20;;;;;;;17.11;85.64;99871.56;5033921;28;20035;-50
2023/09/21 00:32:50;;;;;;;3.13;2.10;;;;;;;17.12;85.61;99867.00;5041480;28;20040;-48
2023/09/21 00:35:16;;;;;;;3.67;2.20;;;;;;;17.13;85.68;99858.78;5037860;28;20035;-48
2023/09/21 00:37:42;;;;;;;7.20;2.80;;;;;;;17.12;85.94;99858.97;5039257;28;20025;-48
2023/09/21 00:40:20;;;;;;;3.10;1.92;;;;;;;17.12;85.98;99853.59;5045000;28;20123;-49
2023/09/21 00:42:46;;;;;;;6.60;2.50;;;;;;;17.12;85.80;99853.59;5043414;28;20029;-48
2023/09/21 00:45:12;;;;;;;4.50;2.05;;;;;;;17.11;85.93;99863.50;5051188;28;20120;-48
2023/09/21 00:47:43;;;;;;;4.68;2.10;;;;;;;17.10;85.52;99844.91;5044837;28;20063;-48
2023/09/21 00:50:12;;;;;;;4.05;2.30;;;;;;;17.11;85.67;99843.91;5047204;28;20060;-48
2023/09/21 00:52:42;;;;;;;3.90;2.28;;;;;;;17.09;85.26;99844.09;5054510;28;20116;-49
2023/09/21 00:55:23;;;;;;;5.32;2.00;;;;;;;17.11;85.75;99839.38;5050946;28;20108;-48
2023/09/21 00:57:50;;;;;;;3.08;2.20;;;;;;;17.13;85.41;99829.28;5050716;28;20047;-48
2023/09/21 01:00:18;;;;;;;6.28;1.90;;;;;;;17.18;84.28;99815.31;5052187;28;20060;-48
2023/09/21 01:02:46;;;;;;;2.95;1.70;;;;;;;17.17;84.36;99819.03;5046728;28;20017;-48
2023/09/21 01:05:13;;;;;;;4.90;2.10;;;;;;;17.21;84.45;99814.94;5046519;28;20032;-48
2023/09/21 01:07:39;;;;;;;2.40;1.90;;;;;;;17.25;83.28;99816.22;5049086;28;20032;-48
2023/09/21 01:10:07;;;;;;;4.75;2.10;;;;;;;17.27;83.67;99816.03;5046440;28;20032;-48
2023/09/21 01:12:34;;;;;;;3.75;1.90;;;;;;;17.28;83.21;99813.16;5054750;28;20070;-48
2023/09/21 01:15:04;;;;;;;5.43;1.95;;;;;;;17.31;83.23;99809.28;5054118;28;20032;-48
2023/09/21 01:17:30;;;;;;;5.78;2.00;;;;;;;17.35;82.48;99802.50;5047442;28;20402;-48
2023/09/21 01:19:56;;;;;;;3.53;2.05;;;;;;;17.41;81.92;99790.22;5049186;28;20022;-48
2023/09/21 01:22:23;;;;;;;3.47;1.88;;;;;;;17.43;82.26;99799.72;5056271;28;20059;-48
2023/09/21 01:24:49;;;;;;;4.43;2.17;;;;;;;17.47;81.28;99795.66;5049038;28;20036;-48
2023/09/21 01:27:14;;;;;;;3.85;1.90;;;;;;;17.48;81.10;99789.25;5051131;28;20036;-48
2023/09/21 01:29:39;;;;;;;4.10;1.77;;;;;;;17.53;80.66;99789.50;5053878;28;20052;-49
2023/09/21 01:32:04;;;;;;;3.08;2.00;;;;;;;17.54;80.35;99785.81;5054172;28;20060;-49
2023/09/21 01:34:31;;;;;;;4.90;1.90;;;;;;;17.60;80.44;99780.72;5047177;28;20108;-49
2023/09/21 01:36:56;;;;;;;2.10;1.90;;;;;;;17.63;80.01;99777.66;5046992;28;20035;-48
2023/09/21 01:39:22;;;;;;;2.88;1.73;;;;;;;17.64;79.91;99774.78;5044043;28;20029;-48
2023/09/21 01:41:49;;;;;;;4.07;1.88;;;;;;;17.57;80.43;99763.97;5052454;28;20086;-48
2023/09/21 01:44:15;;;;;;;2.65;2.10;;;;;;;17.59;80.87;99777.19;5046622;28;20099;-47
2023/09/21 01:46:41;;;;;;;2.38;1.80;;;;;;;17.58;80.33;99772.84;5048881;28;20463;-48
2023/09/21 01:49:11;;;;;;;4.03;2.20;;;;;;;17.62;79.38;99768.78;5045964;28;20037;-48
2023/09/21 01:51:37;;;;;;;5.75;2.10;;;;;;;17.59;80.54;99765.63;5047045;28;20483;-48
2023/09/21 01:54:06;;;;;;;2.00;1.80;;;;;;;17.53;80.35;99759.97;5048318;28;20045;-48
2023/09/21 01:56:33;;;;;;;3.00;1.80;;;;;;;17.59;79.61;99758.41;5049458;28;20025;-48
2023/09/21 01:58:58;;;;;;;3.75;1.90;;;;;;;17.60;79.30;99759.22;5049946;28;20043;-48
2023/09/21 02:01:23;;;;;;;4.55;2.10;;;;;;;17.58;79.68;99759.41;5054836;28;20032;-48
2023/09/21 02:03:49;;;;;;;3.60;2.00;;;;;;;17.57;80.18;99755.09;5046247;28;20033;-48
2023/09/21 02:06:15;;;;;;;2.40;1.98;;;;;;;17.56;79.85;99762.28;5052876;28;20044;-48
2023/09/21 02:08:40;;;;;;;7.45;2.15;;;;;;;17.60;78.78;99759.22;5042969;28;20337;-47
2023/09/21 02:11:05;;;;;;;4.60;2.35;;;;;;;17.60;79.27;99753.84;5052017;28;20025;-48
2023/09/21 02:13:31;;;;;;;2.47;1.75;;;;;;;17.56;80.19;99751.56;5049439;28;20047;-48
2023/09/21 02:15:57;;;;;;;2.83;1.95;;;;;;;17.55;80.08;99751.75;5049440;28;20028;-48
2023/09/21 02:18:22;;;;;;;2.97;1.80;;;;;;;17.53;80.03;99746.56;5045426;28;20039;-49
2023/09/21 02:20:54;;;;;;;4.85;2.05;;;;;;;17.52;80.26;99749.44;5050919;28;20422;-48
2023/09/21 02:23:20;;;;;;;3.33;1.85;;;;;;;17.53;79.71;99737.69;5054446;28;20376;-48
2023/09/21 02:25:46;;;;;;;3.13;2.08;;;;;;;17.51;80.01;99745.91;5052725;28;20059;-49
2023/09/21 02:28:12;;;;;;;3.53;1.73;;;;;;;17.51;79.54;99740.56;5048142;28;20033;-48
2023/09/21 02:30:39;;;;;;;3.60;1.80;;;;;;;17.50;79.89;99738.06;5054617;28;20074;-48
2023/09/21 02:33:05;;;;;;;3.28;1.92;;;;;;;17.48;80.13;99737.44;5043502;28;20033;-48
2023/09/21 02:35:33;;;;;;;1.90;1.73;;;;;;;17.49;79.65;99731.88;5055938;28;20025;-48
2023/09/21 02:37:59;;;;;;;3.38;2.08;;;;;;;17.47;80.02;99738.44;5039323;28;20036;-48
2023/09/21 02:40:25;;;;;;;2.95;2.00;;;;;;;17.46;80.11;99732.25;5048058;28;20041;-48
2023/09/21 02:42:55;;;;;;;4.93;1.80;;;;;;;17.47;80.23;99733.06;5044341;28;20025;-48
2023/09/21 02:45:24;;;;;;;1.92;1.77;;;;;;;17.46;79.62;99724.19;5054761;28;20048;-49
2023/09/21 02:48:00;;;;;;;3.20;1.80;;;;;;;17.45;80.37;99727.88;5049562;28;20095;-48
2023/09/21 02:50:27;;;;;;;2.15;1.90;;;;;;;17.42;79.96;99730.97;5049902;28;20032;-48
2023/09/21 02:52:54;;;;;;;5.63;2.20;;;;;;;17.41;81.05;99731.16;5048414;28;20037;-48
2023/09/21 02:55:24;;;;;;;3.63;1.80;;;;;;;17.38;80.70;99729.66;5051841;28;20052;-48
2023/09/21 02:58:12;;;;;;;5.07;1.73;;;;;;;17.36;80.92;99726.34;5046770;28;20028;-48
2023/09/21 03:00:42;;;;;;;2.72;1.92;;;;;;;17.34;81.00;99723.03;5046685;28;20044;-49
2023/09/21 03:03:10;;;;;;;3.28;1.80;;;;;;;17.31;81.63;99718.03;5048984;28;20028;-48
2023/09/21 03:05:38;;;;;;;3.97;1.83;;;;;;;17.32;81.02;99725.06;5043363;28;20029;-48
2023/09/21 03:08:05;;;;;;;5.15;1.80;;;;;;;17.34;80.98;99714.97;5056110;28;20032;-48
2023/09/21 03:10:31;;;;;;;2.10;1.90;;;;;;;17.35;80.94;99711.25;5044682;28;20032;-47
2023/09/21 03:12:56;;;;;;;2.78;1.70;;;;;;;17.35;81.59;99711.25;5051821;28;20013;-48
2023/09/21 03:15:22;;;;;;;3.40;2.03;;;;;;;17.35;81.21;99713.94;5047643;28;20451;-49
2023/09/21 03:17:52;;;;;;;3.42;2.05;;;;;;;17.31;81.42;99716.19;5052188;28;20056;-48
2023/09/21 03:20:28;;;;;;;4.40;2.22;;;;;;;17.35;80.85;99713.94;5046825;28;20087;-49
2023/09/21 03:22:54;;;;;;;3.95;2.10;;;;;;;17.33;81.08;99707.94;5049806;28;20482;-48
2023/09/21 03:25:25;;;;;;;4.85;2.15;;;;;;;17.35;80.88;99705.88;5050301;28;20392;-48
2023/09/21 03:27:57;;;;;;;2.45;1.75;;;;;;;17.30;81.34;99695.75;5046255;28;20032;-48
2023/09/21 03:30:26;;;;;;;3.50;2.33;;;;;;;17.32;81.27;99701.75;5047311;28;20044;-48
2023/09/21 03:32:52;;;;;;;5.32;2.00;;;;;;;17.32;81.14;99701.75;5046021;28;20021;-49
2023/09/21 03:35:20;;;;;;;7.15;2.00;;;;;;;17.28;81.64;99697.75;5045841;28;20379;-48
2023/09/21 03:37:47;;;;;;;2.30;1.95;;;;;;;17.32;80.98;99695.53;5037896;28;20626;-48
2023/09/21 03:40:13;;;;;;;4.07;2.08;;;;;;;17.31;80.89;99696.56;5045201;28;20108;-48
2023/09/21 03:42:41;;;;;;;4.88;2.20;;;;;;;17.30;81.36;99697.56;5048665;28;20025;-48
2023/09/21 03:45:07;;;;;;;4.10;1.98;;;;;;;17.31;81.79;99696.56;5046600;28;20048;-49
2023/09/21 03:47:33;;;;;;;1.73;1.63;;;;;;;17.36;80.62;99686.09;5041673;28;20134;-52
2023/09/21 03:50:00;;;;;;;2.75;1.90;;;;;;;17.36;81.38;99696.81;5045762;28;20151;-48
2023/09/21 03:52:27;;;;;;;3.88;2.35;;;;;;;17.38;80.46;99684.88;5043697;28;20388;-48
2023/09/21 03:54:52;;;;;;;2.85;1.90;;;;;;;17.42;80.67;99688.03;5046733;28;20031;-48
2023/09/21 03:57:18;;;;;;;2.97;1.92;;;;;;;17.43;80.69;99680.78;5042692;28;20396;-48
2023/09/21 03:59:46;;;;;;;3.13;2.05;;;;;;;17.43;81.14;99683.47;5048606;28;20129;-48
2023/09/21 04:02:13;;;;;;;3.30;1.98;;;;;;;17.41;81.27;99675.63;5050401;28;20036;-48
2023/09/21 04:04:38;;;;;;;3.13;2.00;;;;;;;17.42;81.31;99679.97;5053315;28;20032;-49
2023/09/21 04:07:04;;;;;;;2.35;1.80;;;;;;;17.41;81.52;99680.97;5041376;28;20033;-48
2023/09/21 04:09:29;;;;;;;2.97;1.88;;;;;;;17.42;81.51;99673.75;5046584;28;20038;-48
2023/09/21 04:11:57;;;;;;;2.78;2.20;;;;;;;17.42;81.49;99685.34;5049991;28;20108;-49
2023/09/21 04:14:24;;;;;;;4.20;2.30;;;;;;;17.42;82.23;99671.91;5049098;28;20029;-48
2023/09/21 04:16:50;;;;;;;4.85;2.05;;;;;;;17.42;81.85;99676.44;5052563;28;20086;-49
2023/09/21 04:19:15;;;;;;;3.88;2.00;;;;;;;17.43;82.03;99681.63;5044048;28;20024;-48
2023/09/21 04:21:40;;;;;;;3.50;1.98;;;;;;;17.44;82.24;99687.84;5048155;28;20448;-49
2023/09/21 04:24:06;;;;;;;5.03;2.03;;;;;;;17.44;82.35;99677.09;5045508;28;20039;-49
2023/09/21 04:26:31;;;;;;;2.78;1.90;;;;;;;17.42;83.26;99679.97;5042812;28;20030;-48
2023/09/21 04:28:57;;;;;;;3.42;2.00;;;;;;;17.44;82.53;99674.41;5048887;28;20107;-51
2023/09/21 04:31:22;;;;;;;2.88;2.17;;;;;;;17.44;82.21;99664.50;5053441;28;20055;-48
2023/09/21 04:33:48;;;;;;;5.35;2.40;;;;;;;17.47;82.46;99672.16;5047817;28;20026;-48
2023/09/21 04:36:13;;;;;;;3.22;2.08;;;;;;;17.47;81.97;99672.16;5051908;28;20051;-48
2023/09/21 04:38:39;;;;;;;3.05;2.20;;;;;;;17.47;83.28;99668.63;5041122;28;20505;-48
2023/09/21 04:41:04;;;;;;;3.47;2.38;;;;;;;17.48;82.42;99665.75;5044422;28;20025;-51
2023/09/21 04:43:32;;;;;;;3.42;2.13;;;;;;;17.50;82.63;99668.25;5050389;28;20422;-48
2023/09/21 04:45:58;;;;;;;2.95;1.90;;;;;;;17.51;82.49;99661.88;5047347;28;20479;-51
2023/09/21 04:48:23;;;;;;;5.72;2.15;;;;;;;17.50;82.94;99662.88;5049204;28;20040;-53
2023/09/21 04:50:49;;;;;;;4.60;2.15;;;;;;;17.51;83.27;99664.56;5043805;28;20029;-48
2023/09/21 04:53:17;;;;;;;2.63;2.15;;;;;;;17.53;83.57;99662.50;5048870;28;20171;-50
2023/09/21 04:55:44;;;;;;;3.97;1.98;;;;;;;17.53;83.65;99667.88;5056574;28;20162;-48
2023/09/21 04:58:09;;;;;;;3.92;1.80;;;;;;;17.52;83.79;99664.38;5049190;28;20017;-50
2023/09/21 05:00:34;;;;;;;4.60;2.20;;;;;;;17.52;84.87;99666.22;5046155;28;20037;-49
2023/09/21 05:02:59;;;;;;;6.13;2.60;;;;;;;17.52;85.10;99655.47;5038906;28;20713;-51
2023/09/21 05:05:26;;;;;;;2.50;1.92;;;;;;;17.51;85.86;99656.50;5039872;28;20037;-53
2023/09/21 05:07:54;;;;;;;3.25;1.95;;;;;;;17.50;86.50;99657.53;5039048;28;20017;-48
2023/09/21 05:10:20;;;;;;;3.42;2.30;;;;;;;17.48;86.05;99652.34;5041279;28;20038;-51
2023/09/21 05:12:48;;;;;;;2.17;1.80;;;;;;;17.46;86.91;99651.72;5042953;28;20017;-48
2023/09/21 05:15:15;;;;;;;4.50;2.42;;;;;;;17.45;86.45;99639.31;5039733;28;20096;-48
2023/09/21 05:17:41;;;;;;;4.18;2.10;;;;;;;17.45;85.90;99641.97;5045798;28;20029;-48
2023/09/21 05:20:09;;;;;;;4.70;2.28;;;;;;;17.45;86.83;99638.47;5037321;28;20045;-49
2023/09/21 05:22:35;;;;;;;2.70;2.10;;;;;;;17.44;86.97;99639.53;5044959;28;20103;-48
2023/09/21 05:25:01;;;;;;;2.30;2.08;;;;;;;17.44;86.78;99639.53;5045693;28;20060;-49
2023/09/21 05:27:29;;;;;;;6.07;2.00;;;;;;;17.44;86.75;99637.66;5042944;28;20094;-48
2023/09/21 05:29:55;;;;;;;4.07;2.30;;;;;;;17.46;86.28;99640.97;5046042;28;20103;-50
2023/09/21 05:32:20;;;;;;;4.97;2.30;;;;;;;17.48;85.71;99643.47;5046558;28;20387;-48
2023/09/21 05:34:47;;;;;;;5.53;2.00;;;;;;;17.48;86.53;99646.97;5048536;28;20022;-52
2023/09/21 05:37:12;;;;;;;2.92;2.10;;;;;;;17.50;86.36;99638.72;5044224;28;20288;-50
2023/09/21 05:39:38;;;;;;;3.00;1.88;;;;;;;17.53;86.32;99639.16;5047783;28;20080;-51
2023/09/21 05:42:04;;;;;;;4.70;2.10;;;;;;;17.55;85.84;99644.34;5052718;28;20021;-49
2023/09/21 05:44:29;;;;;;;8.80;2.55;;;;;;;17.59;85.76;99640.28;5049550;28;20045;-48
2023/09/21 05:46:55;;;;;;;3.63;2.33;;;;;;;17.60;86.46;99635.72;5050783;28;20024;-48
2023/09/21 05:49:23;;;;;;;3.65;2.15;;;;;;;17.60;87.23;99644.59;5043687;28;20033;-48
2023/09/21 05:51:52;;;;;;;4.47;2.30;;;;;;;17.60;86.59;99644.59;5039264;28;20043;-49
2023/09/21 05:54:20;;;;;;;4.80;2.30;;;;;;;17.63;87.67;99640.72;5044462;28;20471;-49
2023/09/21 05:56:47;;;;;;;7.17;2.40;;;;;;;17.64;87.86;99642.38;5042190;28;20475;-51
2023/09/21 05:59:12;;;;;;;4.75;2.33;;;;;;;17.64;88.05;99640.53;5046839;28;20276;-48
2023/09/21 06:01:37;;;;;;;4.40;2.20;;;;;;;17.62;89.16;99639.91;5044673;28;20042;-48
2023/09/21 06:04:03;;;;;;;4.75;2.78;;;;;;;17.62;89.59;99641.72;5044218;28;20079;-48
2023/09/21 06:06:29;;;;;;;6.32;2.63;;;;;;;17.60;89.65;99641.91;5038910;28;20522;-48
2023/09/21 06:08:57;;;;;;;4.63;2.67;;;;;;;17.59;91.48;99651.00;5041832;28;20021;-49
2023/09/21 06:11:26;;;;;;;7.03;3.40;;;;;;;17.57;92.00;99650.38;5047616;28;20059;-48
2023/09/21 06:13:53;;;;;;;4.75;2.30;;;;;;;17.54;91.51;99646.22;5047617;28;20275;-50
2023/09/21 06:16:19;;;;;;;3.58;2.22;;;;;;;17.44;93.79;99652.94;5044984;28;20025;-49
2023/09/21 06:18:44;;;;;;;3.22;2.40;;;;;;;17.43;94.13;99656.63;5047944;28;20031;-49
2023/09/21 06:21:09;;;;;;;3.65;2.78;;;;;;;17.39;93.81;99651.66;5050397;28;20037;-48
2023/09/21 06:23:35;;;;;;;2.90;2.60;;;;;;;17.32;95.09;99655.28;5050009;28;20107;-49
2023/09/21 06:26:00;;;;;;;7.28;2.50;;;;;;;17.29;95.92;99653.00;5046986;28;20494;-48
2023/09/21 06:28:26;;;;;;;2.95;2.30;;;;;;;17.25;95.83;99655.19;5043451;28;20079;-49
2023/09/21 06:30:52;;;;;;;3.58;2.50;;;;;;;17.22;97.14;99647.56;5043630;28;20025;-48
2023/09/21 06:33:18;;;;;;;5.57;3.05;;;;;;;17.20;97.30;99654.94;5052951;28;20476;-48
2023/09/21 06:35:44;;;;;;;3.42;2.22;;;;;;;17.17;98.74;99658.84;5044290;28;20168;-48
2023/09/21 06:38:09;;;;;;;5.70;3.10;;;;;;;17.17;99.13;99658.03;5045040;28;20576;-48
2023/09/21 06:40:36;;;;;;;3.22;2.50;;;;;;;17.13;99.00;99651.38;5040366;28;20037;-48
2023/09/21 06:43:05;;;;;;;4.38;2.50;;;;;;;17.11;98.65;99658.78;5043874;28;20387;-48
2023/09/21 06:45:32;;;;;;;6.80;2.88;;;;;;;17.10;99.74;99663.31;5046820;28;20046;-49
2023/09/21 06:47:58;;;;;;;4.75;2.90;;;;;;;17.09;100.00;99667.00;5044340;28;20471;-49
2023/09/21 06:50:23;;;;;;;4.65;2.55;;;;;;;17.07;100.00;99670.91;5045430;28;20078;-51
2023/09/21 06:52:49;;;;;;;3.63;2.63;;;;;;;17.05;100.00;99679.13;5045893;28;20487;-49
2023/09/21 06:55:14;;;;;;;4.85;2.28;;;;;;;17.01;100.00;99680.53;5046427;28;20095;-49
2023/09/21 06:57:40;;;;;;;3.90;2.45;;;;;;;16.97;100.00;99679.25;5045876;28;20047;-49
2023/09/21 07:00:09;;;;;;;2.83;2.60;;;;;;;16.92;100.00;99689.69;5041594;28;20450;-48
2023/09/21 07:02:35;;;;;;;;;;;;;;;17.00;100.00;99685.09;5046795;28;20040;-49
2023/09/21 07:05:00;;;;;;;7.22;2.80;;;;;;;16.88;100.00;99685.75;5044700;28;19909;-49
2023/09/21 07:07:26;;;;;;;5.90;3.15;;;;;;;16.85;100.00;99686.09;5043187;28;20407;-49
2023/09/21 07:09:53;;;;;;;5.30;3.35;;;;;;;16.80;100.00;99684.81;5047239;28;20021;-50
2023/09/21 07:12:18;;;;;;;4.70;3.00;;;;;;;16.76;100.00;99685.34;5041683;28;20029;-49
2023/09/21 07:14:45;;;;;;;9.10;3.10;;;;;;;16.74;100.00;99671.31;5041093;28;20104;-48
2023/09/21 07:17:11;;;;;;;5.13;3.47;;;;;;;16.75;100.00;99670.28;5047924;28;20034;-49
2023/09/21 07:19:37;;;;;;;4.25;3.15;;;;;;;16.74;100.00;99674.00;5049062;28;20426;-48
2023/09/21 07:22:03;;;;;;;5.32;2.88;;;;;;;16.72;100.00;99666.13;5044388;28;20545;-49
2023/09/21 07:24:30;;;;;;;4.97;3.00;;;;;;;16.75;100.00;99671.13;5045111;28;20021;-48
2023/09/21 07:26:56;;;;;;;5.05;3.13;;;;;;;16.77;100.00;99663.72;5046174;28;20040;-51
2023/09/21 07:29:23;;;;;;;4.25;3.30;;;;;;;16.76;100.00;99656.69;5045148;28;20033;-49
2023/09/21 07:31:48;;;;;;;3.30;3.00;;;;;;;16.81;100.00;99674.91;5043016;28;20029;-49
2023/09/21 07:34:14;;;;;;;5.30;3.17;;;;;;;16.78;100.00;99665.38;5049304;28;20025;-53
2023/09/21 07:36:39;;;;;;;3.45;2.85;;;;;;;16.79;100.00;99669.72;5043401;28;20044;-50
2023/09/21 07:39:09;;;;;;;6.47;3.25;;;;;;;16.79;100.00;99666.22;5040901;28;20596;-49
2023/09/21 07:41:34;;;;;;;3.63;2.85;;;;;;;16.79;100.00;99677.75;5051636;28;20037;-49
2023/09/21 07:44:00;;;;;;;5.25;2.92;;;;;;;16.79;100.00;99677.75;5043943;28;20510;-49
2023/09/21 07:46:25;;;;;;;5.38;3.10;;;;;;;16.79;100.00;99677.75;5048520;28;20020;-48
2023/09/21 07:48:50;;;;;;;5.00;3.00;;;;;;;16.78;100.00;99684.13;5045836;28;20024;-48
2023/09/21 07:51:16;;;;;;;6.05;3.28;;;;;;;16.78;100.00;99686.00;5043345;28;20033;-50
2023/09/21 07:53:42;;;;;;;5.43;3.05;;;;;;;16.79;100.00;99682.31;5047799;28;20112;-50
2023/09/21 07:56:12;;;;;;;6.18;3.03;;;;;;;16.76;100.00;99680.81;5043096;28;20442;-49
2023/09/21 07:58:37;;;;;;;3.92;3.00;;;;;;;16.78;100.00;99689.50;5051653;28;20029;-49
2023/09/21 08:01:03;;;;;;;4.85;3.03;;;;;;;16.75;100.00;99689.03;5042050;28;20029;-48
2023/09/21 08:03:28;;;;;;;4.07;2.75;;;;;;;16.78;100.00;99694.88;5038556;28;20026;-49
2023/09/21 08:05:53;;;;;;;4.50;3.15;;;;;;;16.77;100.00;99703.09;5044090;28;20017;-48
2023/09/21 08:08:19;;;;;;;5.13;3.67;;;;;;;16.77;100.00;99705.78;5049936;28;20029;-49
2023/09/21 08:10:45;;;;;;;7.05;3.28;;;;;;;16.76;100.00;99702.28;5042419;28;20479;-49
2023/09/21 08:13:10;;;;;;;3.85;2.90;;;;;;;16.71;100.00;99715.41;5043708;28;20075;-49
2023/09/21 08:15:36;;;;;;;4.50;3.45;;;;;;;16.68;100.00;99710.41;5045446;28;20021;-49
2023/09/21 08:18:02;;;;;;;5.60;2.80;;;;;;;16.68;100.00;99710.41;5035860;28;20037;-48
2023/09/21 08:20:28;;;;;;;5.43;2.92;;;;;;;16.64;100.00;99712.63;5037419;28;20026;-48
2023/09/21 08:22:53;;;;;;;3.03;2.67;;;;;;;16.62;100.00;99720.03;5038172;28;20025;-48
2023/09/21 08:25:19;;;;;;;6.63;3.10;;;;;;;16.61;100.00;99720.22;5044325;28;20519;-49
2023/09/21 08:27:45;;;;;;;3.63;3.08;;;;;;;16.60;100.00;99732.78;5040802;28;20021;-49
2023/09/21 08:30:12;;;;;;;5.13;2.78;;;;;;;16.56;100.00;99736.03;5043682;28;20057;-48
2023/09/21 08:32:39;;;;;;;3.42;2.58;;;;;;;16.53;100.00;99734.53;5018961;28;20107;-48
2023/09/21 08:35:05;;;;;;;3.22;2.30;;;;;;;16.52;100.00;99743.59;5032961;28;20025;-48
2023/09/21 08:37:31;;;;;;;2.45;2.13;;;;;;;16.54;100.00;99754.16;5039592;28;20036;-48
2023/09/21 08:39:56;;;;;;;2.97;2.45;;;;;;;16.51;100.00;99752.66;5044420;28;20029;-49
2023/09/21 08:42:21;;;;;;;3.83;2.55;;;;;;;16.48;100.00;99752.19;5045922;28;20047;-48
2023/09/21 08:44:49;;;;;;;4.30;2.92;;;;;;;16.44;100.00;99762.44;5043259;28;20049;-49
2023/09/21 08:47:15;;;;;;;3.15;2.30;;;;;;;16.43;100.00;99766.13;5050968;28;20033;-49
2023/09/21 08:49:47;;;;;;;3.28;2.10;;;;;;;16.42;100.00;99769.81;5047366;28;20086;-48
2023/09/21 08:52:13;;;;;;;3.05;2.13;;;;;;;16.38;100.00;99765.84;5045861;28;20116;-49
2023/09/21 08:54:42;;;;;;;3.05;2.40;;;;;;;16.38;100.00;99772.03;5038794;28;20028;-49
2023/09/21 08:57:10;;;;;;;4.65;2.40;;;;;;;16.37;100.00;99765.03;5040554;28;20052;-49
2023/09/21 08:59:40;;;;;;;4.63;2.00;;;;;;;16.31;100.00;99771.09;5042054;28;20056;-49
2023/09/21 09:02:10;;;;;;;2.80;1.92;;;;;;;16.31;100.00;99764.91;5039710;28;20302;-49
2023/09/21 09:04:36;;;;;;;2.55;1.73;;;;;;;16.33;100.00;99763.69;5041392;28;20105;-50
2023/09/21 09:07:02;;;;;;;4.18;1.67;;;;;;;16.31;100.00;99754.19;5041265;28;20025;-49
2023/09/21 09:09:27;;;;;;;11.20;1.92;;;;;;;16.32;100.00;99747.81;5041827;28;20021;-49
2023/09/21 09:11:52;;;;;;;7.88;1.60;;;;;;;16.31;100.00;99757.69;5047339;28;20383;-49
2023/09/21 09:14:22;;;;;;;3.97;1.50;;;;;;;16.27;100.00;99764.44;5043767;28;20360;-49
2023/09/21 09:16:47;;;;;;;;;;;;;;;16.40;100.00;99767.34;5043991;28;20033;-48
2023/09/21 09:19:13;;;;;;;3.15;1.50;;;;;;;16.28;100.00;99771.44;5042143;28;19963;-48
2023/09/21 09:21:41;;;;;;;2.92;1.25;;;;;;;16.24;100.00;99767.47;5045470;28;20037;-51
2023/09/21 09:24:08;;;;;;;1.65;1.42;;;;;;;16.26;100.00;99758.22;5048981;28;20043;-49
2023/09/21 09:26:36;;;;;;;2.08;1.48;;;;;;;16.25;100.00;99721.75;5051014;28;20032;-48
2023/09/21 09:29:07;;;;;;;2.80;1.50;;;;;;;16.28;100.00;99760.72;5052752;28;20024;-49
2023/09/21 09:31:34;;;;;;;3.15;1.45;;;;;;;16.22;100.00;99750.72;5041157;28;20021;-49
2023/09/21 09:34:04;;;;;;;1.52;1.42;;;;;;;16.25;100.00;99747.69;5042960;28;20041;-48
2023/09/21 09:36:33;;;;;;;1.90;1.40;;;;;;;16.24;100.00;99733.47;5046981;28;20036;-51
2023/09/21 09:39:01;;;;;;;4.35;1.88;;;;;;;16.32;100.00;99731.72;5043275;28;20041;-48
2023/09/21 09:41:31;;;;;;;1.98;1.45;;;;;;;16.28;100.00;99734.75;5033439;28;20048;-48
2023/09/21 09:43:59;;;;;;;3.35;1.80;;;;;;;16.31;100.00;99727.41;5043964;28;20045;-49
2023/09/21 09:46:26;;;;;;;2.15;1.50;;;;;;;16.35;100.00;99729.50;5040767;28;20739;-49
2023/09/21 09:48:57;;;;;;;1.58;1.48;;;;;;;16.35;100.00;99734.88;5040168;28;20040;-48
2023/09/21 09:51:27;;;;;;;1.88;1.65;;;;;;;16.41;100.00;99738.69;5044055;28;20111;-48
2023/09/21 09:53:54;;;;;;;3.10;1.85;;;;;;;16.41;100.00;99736.81;5045357;28;20033;-48
2023/09/21 09:56:20;;;;;;;3.03;1.88;;;;;;;16.43;100.00;99728.59;5040417;28;20059;-48
2023/09/21 09:58:47;;;;;;;4.35;1.85;;;;;;;16.45;100.00;99729.25;5048326;28;20029;-48
2023/09/21 10:01:14;;;;;;;2.45;1.83;;;;;;;16.51;100.00;99728.53;5054409;28;20029;-48
2023/09/21 10:03:40;;;;;;;3.65;1.83;;;;;;;16.53;100.00;99723.81;5038307;28;20031;-48
2023/09/21 10:06:08;;;;;;;2.55;2.00;;;;;;;16.54;100.00;99711.25;5040727;28;20036;-49
2023/09/21 10:08:38;;;;;;;4.25;2.00;;;;;;;16.59;100.00;99714.22;5045268;28;20446;-47
2023/09/21 10:11:05;;;;;;;7.07;2.45;;;;;;;16.63;100.00;99712.81;5048178;28;20478;-48
2023/09/21 10:13:30;;;;;;;4.22;2.45;;;;;;;16.67;100.00;99702.53;5047732;28;20033;-49
2023/09/21 10:16:04;;;;;;;3.03;2.25;;;;;;;16.75;100.00;99710.50;5040830;28;20034;-49
2023/09/21 10:18:33;;;;;;;7.38;2.90;;;;;;;16.77;100.00;99708.44;5040441;28;20463;-49
2023/09/21 10:21:23;;;;;;;6.68;3.05;;;;;;;16.84;100.00;99709.41;5040393;28;20383;-48
2023/09/21 10:24:14;;;;;;;4.53;3.17;;;;;;;16.91;100.00;99702.28;5044118;28;20080;-48
2023/09/21 10:26:45;;;;;;;4.05;3.15;;;;;;;16.95;100.00;99698.22;5052221;28;20163;-50
2023/09/21 10:29:12;;;;;;;3.00;2.70;;;;;;;17.00;100.00;99713.75;5050124;28;20112;-48
2023/09/21 10:31:39;;;;;;;3.92;2.65;;;;;;;17.05;100.00;99697.91;5053410;28;20021;-48
2023/09/21 10:34:07;;;;;;;6.20;2.90;;;;;;;17.08;100.00;99694.03;5052105;28;20036;-48
2023/09/21 10:36:36;;;;;;;4.03;3.10;;;;;;;17.14;100.00;99695.97;5042889;28;20033;-49
2023/09/21 10:39:05;;;;;;;;;;;;;;;17.22;100.00;99697.69;5042241;28;20041;-48
2023/09/21 10:41:31;;;;;;;3.60;2.35;;;;;;;17.23;100.00;99680.59;5037291;28;19932;-48
2023/09/21 10:43:56;;;;;;;5.30;2.70;;;;;;;17.26;100.00;99681.03;5039047;28;20048;-49
2023/09/21 10:46:24;;;;;;;3.45;2.45;;;;;;;17.30;100.00;99689.53;5056749;28;20028;-49
2023/09/21 10:49:04;;;;;;;3.80;2.38;;;;;;;17.36;100.00;99684.22;5046248;28;20025;-49
2023/09/21 10:51:31;;;;;;;3.42;2.20;;;;;;;17.42;100.00;99679.13;5048508;28;20028;-48
2023/09/21 10:53:58;;;;;;;5.82;2.70;;;;;;;17.45;100.00;99676.06;5040017;28;20037;-48
2023/09/21 10:56:24;;;;;;;4.40;2.33;;;;;;;17.45;100.00;99671.50;5049521;28;20033;-50
2023/09/21 10:58:50;;;;;;;2.15;1.95;;;;;;;17.48;100.00;99665.75;5035093;28;20079;-48
2023/09/21 11:01:15;;;;;;;3.70;2.30;;;;;;;17.50;100.00;99647.63;5048304;28;20050;-48
2023/09/21 11:03:42;;;;;;;5.32;2.28;;;;;;;17.53;100.00;99644.53;5042061;28;20060;-49
2023/09/21 11:06:08;;;;;;;2.50;2.00;;;;;;;17.59;100.00;99652.88;5041022;28;20024;-49
2023/09/21 11:08:33;;;;;;;3.80;2.17;;;;;;;17.61;100.00;99650.81;5041002;28;20029;-50
2023/09/21 11:10:59;;;;;;;3.35;2.20;;;;;;;17.65;100.00;99641.34;5050317;28;20021;-48
2023/09/21 11:13:26;;;;;;;4.65;2.00;;;;;;;17.68;100.00;99643.66;5042135;28;20087;-50
2023/09/21 11:15:54;;;;;;;4.45;2.10;;;;;;;17.70;100.00;99639.75;5045345;28;20047;-48
2023/09/21 11:18:20;;;;;;;2.10;1.83;;;;;;;17.71;100.00;99643.25;5044601;28;20030;-48
2023/09/21 11:20:45;;;;;;;2.72;1.70;;;;;;;17.72;100.00;99644.94;5048095;28;20029;-48
2023/09/21 11:23:12;;;;;;;2.70;1.92;;;;;;;17.71;100.00;99627.97;5044094;28;20043;-48
2023/09/21 11:25:37;;;;;;;4.00;2.03;;;;;;;17.75;100.00;99636.47;5048625;28;20036;-48
2023/09/21 11:28:03;;;;;;;3.72;1.92;;;;;;;17.73;100.00;99671.56;5046145;28;20101;-48
2023/09/21 11:30:28;;;;;;;3.35;2.42;;;;;;;17.66;100.00;99677.91;5051178;28;20029;-48
2023/09/21 11:32:54;;;;;;;3.75;2.67;;;;;;;17.62;100.00;99673.94;5046775;28;20107;-48